sensor_id;sensor_type;location;lat;lon;timestamp;temperature;humidity
1936;DHT22;969;49.892;10.896;2023-07-22T00:01:14;26.10;49.20
1936;DHT22;969;49.892;10.896;2023-07-22T00:03:40;26.10;49.30
1936;DHT22;969;49.892;10.896;2023-07-22T00:06:10;26.10;49.20
1936;DHT22;969;49.892;10.896;2023-07-22T00:08:36;26.10;49.30
1936;DHT22;969;49.892;10.896;2023-07-22T00:11:03;26.10;49.30
1936;DHT22;969;49.892;10.896;2023-07-22T00:13:29;26.10;49.40
1936;DHT22;969;49.892;10.896;2023-07-22T00:15:56;26.10;49.40
1936;DHT22;969;49.892;10.896;2023-07-22T00:18:22;26.10;49.40
1936;DHT22;969;49.892;10.896;2023-07-22T00:20:49;26.10;49.40
1936;DHT22;969;49.892;10.896;2023-07-22T00:23:15;26.10;49.40
1936;DHT22;969;49.892;10.896;2023-07-22T00:25:41;26.10;49.50
1936;DHT22;969;49.892;10.896;2023-07-22T00:28:07;26.10;49.40
1936;DHT22;969;49.892;10.896;2023-07-22T00:30:33;26.10;49.50
1936;DHT22;969;49.892;10.896;2023-07-22T00:33:00;26.10;49.40
1936;DHT22;969;49.892;10.896;2023-07-22T00:35:26;26.10;49.50
1936;DHT22;969;49.892;10.896;2023-07-22T00:37:51;26.10;49.50
1936;DHT22;969;49.892;10.896;2023-07-22T00:40:17;26.00;49.40
1936;DHT22;969;49.892;10.896;2023-07-22T00:42:43;26.10;49.50
1936;DHT22;969;49.892;10.896;2023-07-22T00:45:09;26.10;49.60
1936;DHT22;969;49.892;10.896;2023-07-22T00:47:35;26.10;49.60
1936;DHT22;969;49.892;10.896;2023-07-22T00:50:02;26.00;49.50
1936;DHT22;969;49.892;10.896;2023-07-22T00:52:28;26.10;49.60
1936;DHT22;969;49.892;10.896;2023-07-22T00:54:54;26.00;49.50
1936;DHT22;969;49.892;10.896;2023-07-22T00:57:21;26.10;49.60
1936;DHT22;969;49.892;10.896;2023-07-22T00:59:47;26.10;49.60
1936;DHT22;969;49.892;10.896;2023-07-22T01:02:13;26.00;49.60
1936;DHT22;969;49.892;10.896;2023-07-22T01:04:38;26.10;49.60
1936;DHT22;969;49.892;10.896;2023-07-22T01:07:05;26.10;49.70
1936;DHT22;969;49.892;10.896;2023-07-22T01:09:37;26.00;49.60
1936;DHT22;969;49.892;10.896;2023-07-22T01:12:03;26.00;49.60
1936;DHT22;969;49.892;10.896;2023-07-22T01:14:34;26.00;50.20
1936;DHT22;969;49.892;10.896;2023-07-22T01:17:05;26.00;49.70
1936;DHT22;969;49.892;10.896;2023-07-22T01:19:31;26.00;49.80
1936;DHT22;969;49.892;10.896;2023-07-22T01:21:59;26.00;49.80
1936;DHT22;969;49.892;10.896;2023-07-22T01:24:26;26.00;49.80
1936;DHT22;969;49.892;10.896;2023-07-22T01:26:52;26.00;49.80
1936;DHT22;969;49.892;10.896;2023-07-22T01:29:17;26.00;49.80
1936;DHT22;969;49.892;10.896;2023-07-22T01:31:48;26.00;49.80
1936;DHT22;969;49.892;10.896;2023-07-22T01:34:15;26.00;49.70
1936;DHT22;969;49.892;10.896;2023-07-22T01:36:40;26.00;49.80
1936;DHT22;969;49.892;10.896;2023-07-22T01:39:06;26.00;49.80
1936;DHT22;969;49.892;10.896;2023-07-22T01:41:32;26.00;49.80
1936;DHT22;969;49.892;10.896;2023-07-22T01:43:57;26.00;49.90
1936;DHT22;969;49.892;10.896;2023-07-22T01:46:23;26.00;49.80
1936;DHT22;969;49.892;10.896;2023-07-22T01:48:48;26.00;49.90
1936;DHT22;969;49.892;10.896;2023-07-22T01:51:14;25.90;49.90
1936;DHT22;969;49.892;10.896;2023-07-22T01:53:40;25.90;49.80
1936;DHT22;969;49.892;10.896;2023-07-22T01:56:05;26.00;49.90
1936;DHT22;969;49.892;10.896;2023-07-22T01:58:31;25.90;49.90
1936;DHT22;969;49.892;10.896;2023-07-22T02:00:57;25.90;49.90
1936;DHT22;969;49.892;10.896;2023-07-22T02:03:23;26.00;50.00
1936;DHT22;969;49.892;10.896;2023-07-22T02:05:48;25.90;49.90
1936;DHT22;969;49.892;10.896;2023-07-22T02:08:14;25.90;49.90
1936;DHT22;969;49.892;10.896;2023-07-22T02:10:39;25.90;50.00
1936;DHT22;969;49.892;10.896;2023-07-22T02:13:05;25.90;50.00
1936;DHT22;969;49.892;10.896;2023-07-22T02:15:32;25.90;50.00
1936;DHT22;969;49.892;10.896;2023-07-22T02:17:57;25.90;49.90
1936;DHT22;969;49.892;10.896;2023-07-22T02:20:23;25.90;50.00
1936;DHT22;969;49.892;10.896;2023-07-22T02:22:49;25.90;50.10
1936;DHT22;969;49.892;10.896;2023-07-22T02:25:15;25.90;50.00
1936;DHT22;969;49.892;10.896;2023-07-22T02:27:41;25.90;50.00
1936;DHT22;969;49.892;10.896;2023-07-22T02:30:07;25.90;50.00
1936;DHT22;969;49.892;10.896;2023-07-22T02:32:40;25.90;50.10
1936;DHT22;969;49.892;10.896;2023-07-22T02:35:07;25.90;50.10
1936;DHT22;969;49.892;10.896;2023-07-22T02:37:33;25.90;50.20
1936;DHT22;969;49.892;10.896;2023-07-22T02:39:59;25.90;50.10
1936;DHT22;969;49.892;10.896;2023-07-22T02:42:25;25.90;50.20
1936;DHT22;969;49.892;10.896;2023-07-22T02:44:51;25.90;50.10
1936;DHT22;969;49.892;10.896;2023-07-22T02:47:17;25.90;50.10
1936;DHT22;969;49.892;10.896;2023-07-22T02:49:43;25.90;50.20
1936;DHT22;969;49.892;10.896;2023-07-22T02:52:09;25.90;50.20
1936;DHT22;969;49.892;10.896;2023-07-22T02:54:39;25.90;50.20
1936;DHT22;969;49.892;10.896;2023-07-22T02:57:05;25.90;50.20
1936;DHT22;969;49.892;10.896;2023-07-22T02:59:32;25.90;50.70
1936;DHT22;969;49.892;10.896;2023-07-22T03:01:58;25.90;50.20
1936;DHT22;969;49.892;10.896;2023-07-22T03:04:24;25.90;50.20
1936;DHT22;969;49.892;10.896;2023-07-22T03:06:49;25.90;50.20
1936;DHT22;969;49.892;10.896;2023-07-22T03:09:15;25.90;50.10
1936;DHT22;969;49.892;10.896;2023-07-22T03:11:40;25.80;50.10
1936;DHT22;969;49.892;10.896;2023-07-22T03:14:06;25.90;50.20
1936;DHT22;969;49.892;10.896;2023-07-22T03:16:31;25.90;50.10
1936;DHT22;969;49.892;10.896;2023-07-22T03:18:57;25.80;50.10
1936;DHT22;969;49.892;10.896;2023-07-22T03:21:23;25.80;50.20
1936;DHT22;969;49.892;10.896;2023-07-22T03:23:48;25.80;50.10
1936;DHT22;969;49.892;10.896;2023-07-22T03:26:14;25.80;50.10
1936;DHT22;969;49.892;10.896;2023-07-22T03:28:41;25.80;50.10
1936;DHT22;969;49.892;10.896;2023-07-22T03:31:07;25.80;50.10
1936;DHT22;969;49.892;10.896;2023-07-22T03:33:33;25.80;50.20
1936;DHT22;969;49.892;10.896;2023-07-22T03:36:00;25.80;50.10
1936;DHT22;969;49.892;10.896;2023-07-22T03:38:26;25.80;50.10
1936;DHT22;969;49.892;10.896;2023-07-22T03:40:51;25.80;50.20
1936;DHT22;969;49.892;10.896;2023-07-22T03:43:19;25.80;50.20
1936;DHT22;969;49.892;10.896;2023-07-22T03:45:45;25.80;50.20
1936;DHT22;969;49.892;10.896;2023-07-22T03:48:11;25.80;50.20
1936;DHT22;969;49.892;10.896;2023-07-22T03:50:36;25.80;50.20
1936;DHT22;969;49.892;10.896;2023-07-22T03:53:02;25.80;50.20
1936;DHT22;969;49.892;10.896;2023-07-22T03:55:27;25.80;50.20
1936;DHT22;969;49.892;10.896;2023-07-22T03:57:53;25.80;50.80
1936;DHT22;969;49.892;10.896;2023-07-22T04:00:20;25.80;50.20
1936;DHT22;969;49.892;10.896;2023-07-22T04:02:46;25.80;50.20
1936;DHT22;969;49.892;10.896;2023-07-22T04:05:12;25.80;50.20
1936;DHT22;969;49.892;10.896;2023-07-22T04:07:38;25.80;50.30
1936;DHT22;969;49.892;10.896;2023-07-22T04:10:04;25.80;50.30
1936;DHT22;969;49.892;10.896;2023-07-22T04:12:30;25.80;50.20
1936;DHT22;969;49.892;10.896;2023-07-22T04:14:56;25.80;50.20
1936;DHT22;969;49.892;10.896;2023-07-22T04:17:21;25.80;50.30
1936;DHT22;969;49.892;10.896;2023-07-22T04:19:47;25.80;50.20
1936;DHT22;969;49.892;10.896;2023-07-22T04:22:13;25.80;50.30
1936;DHT22;969;49.892;10.896;2023-07-22T04:24:38;25.80;50.30
1936;DHT22;969;49.892;10.896;2023-07-22T04:27:04;25.70;50.30
1936;DHT22;969;49.892;10.896;2023-07-22T04:29:30;25.70;50.20
1936;DHT22;969;49.892;10.896;2023-07-22T04:32:00;25.70;50.20
1936;DHT22;969;49.892;10.896;2023-07-22T04:34:32;25.70;50.20
1936;DHT22;969;49.892;10.896;2023-07-22T04:36:58;25.70;50.20
1936;DHT22;969;49.892;10.896;2023-07-22T04:39:23;25.70;50.20
1936;DHT22;969;49.892;10.896;2023-07-22T04:41:49;25.70;50.30
1936;DHT22;969;49.892;10.896;2023-07-22T04:44:15;25.70;50.20
1936;DHT22;969;49.892;10.896;2023-07-22T04:46:40;25.70;50.20
1936;DHT22;969;49.892;10.896;2023-07-22T04:49:06;25.70;50.30
1936;DHT22;969;49.892;10.896;2023-07-22T04:51:31;25.70;50.30
1936;DHT22;969;49.892;10.896;2023-07-22T04:53:57;25.70;50.30
1936;DHT22;969;49.892;10.896;2023-07-22T04:56:23;25.70;50.30
1936;DHT22;969;49.892;10.896;2023-07-22T04:58:48;25.80;50.40
1936;DHT22;969;49.892;10.896;2023-07-22T05:01:15;25.80;50.40
1936;DHT22;969;49.892;10.896;2023-07-22T05:03:40;25.70;50.30
1936;DHT22;969;49.892;10.896;2023-07-22T05:06:06;25.70;50.30
1936;DHT22;969;49.892;10.896;2023-07-22T05:08:32;25.80;50.40
1936;DHT22;969;49.892;10.896;2023-07-22T05:10:57;25.80;50.40
1936;DHT22;969;49.892;10.896;2023-07-22T05:13:23;25.80;50.30
1936;DHT22;969;49.892;10.896;2023-07-22T05:15:49;25.80;50.30
1936;DHT22;969;49.892;10.896;2023-07-22T05:18:14;25.80;50.40
1936;DHT22;969;49.892;10.896;2023-07-22T05:20:40;25.80;50.30
1936;DHT22;969;49.892;10.896;2023-07-22T05:23:05;25.80;50.40
1936;DHT22;969;49.892;10.896;2023-07-22T05:25:31;25.80;50.30
1936;DHT22;969;49.892;10.896;2023-07-22T05:27:56;25.80;50.30
1936;DHT22;969;49.892;10.896;2023-07-22T05:30:22;25.80;50.20
1936;DHT22;969;49.892;10.896;2023-07-22T05:32:47;25.80;50.20
1936;DHT22;969;49.892;10.896;2023-07-22T05:35:16;25.80;50.20
1936;DHT22;969;49.892;10.896;2023-07-22T05:37:42;25.80;50.20
1936;DHT22;969;49.892;10.896;2023-07-22T05:40:08;25.80;50.20
1936;DHT22;969;49.892;10.896;2023-07-22T05:42:34;25.80;50.10
1936;DHT22;969;49.892;10.896;2023-07-22T05:45:01;25.80;50.20
1936;DHT22;969;49.892;10.896;2023-07-22T05:47:27;25.80;50.10
1936;DHT22;969;49.892;10.896;2023-07-22T05:49:53;25.80;50.10
1936;DHT22;969;49.892;10.896;2023-07-22T05:52:19;25.80;50.10
1936;DHT22;969;49.892;10.896;2023-07-22T05:54:44;25.80;50.10
1936;DHT22;969;49.892;10.896;2023-07-22T05:57:10;25.80;50.10
1936;DHT22;969;49.892;10.896;2023-07-22T05:59:35;25.80;50.10
1936;DHT22;969;49.892;10.896;2023-07-22T06:02:06;25.80;50.00
1936;DHT22;969;49.892;10.896;2023-07-22T06:04:32;25.80;50.00
1936;DHT22;969;49.892;10.896;2023-07-22T06:06:57;25.80;50.00
1936;DHT22;969;49.892;10.896;2023-07-22T06:09:23;25.80;50.00
1936;DHT22;969;49.892;10.896;2023-07-22T06:11:48;25.80;49.90
1936;DHT22;969;49.892;10.896;2023-07-22T06:14:14;25.80;49.90
1936;DHT22;969;49.892;10.896;2023-07-22T06:16:40;25.80;49.90
1936;DHT22;969;49.892;10.896;2023-07-22T06:19:05;25.80;49.80
1936;DHT22;969;49.892;10.896;2023-07-22T06:21:31;25.80;49.80
1936;DHT22;969;49.892;10.896;2023-07-22T06:23:56;25.80;49.80
1936;DHT22;969;49.892;10.896;2023-07-22T06:26:22;25.80;49.80
1936;DHT22;969;49.892;10.896;2023-07-22T06:28:48;25.80;49.70
1936;DHT22;969;49.892;10.896;2023-07-22T06:31:13;25.70;49.70
1936;DHT22;969;49.892;10.896;2023-07-22T06:33:39;25.80;49.70
1936;DHT22;969;49.892;10.896;2023-07-22T06:36:05;25.70;50.20
1936;DHT22;969;49.892;10.896;2023-07-22T06:38:30;25.70;49.60
1936;DHT22;969;49.892;10.896;2023-07-22T06:40:56;25.70;49.60
1936;DHT22;969;49.892;10.896;2023-07-22T06:43:22;25.70;49.60
1936;DHT22;969;49.892;10.896;2023-07-22T06:45:48;25.70;49.50
1936;DHT22;969;49.892;10.896;2023-07-22T06:48:14;25.80;49.60
1936;DHT22;969;49.892;10.896;2023-07-22T06:50:39;25.70;49.50
1936;DHT22;969;49.892;10.896;2023-07-22T06:53:05;25.70;49.60
1936;DHT22;969;49.892;10.896;2023-07-22T06:55:30;25.70;49.50
1936;DHT22;969;49.892;10.896;2023-07-22T06:57:56;25.70;49.50
1936;DHT22;969;49.892;10.896;2023-07-22T07:00:23;25.70;49.50
1936;DHT22;969;49.892;10.896;2023-07-22T07:02:50;25.70;49.60
1936;DHT22;969;49.892;10.896;2023-07-22T07:05:15;25.70;49.50
1936;DHT22;969;49.892;10.896;2023-07-22T07:07:42;25.70;49.60
1936;DHT22;969;49.892;10.896;2023-07-22T07:10:08;25.70;49.60
1936;DHT22;969;49.892;10.896;2023-07-22T07:12:33;25.70;49.60
1936;DHT22;969;49.892;10.896;2023-07-22T07:15:00;25.70;49.50
1936;DHT22;969;49.892;10.896;2023-07-22T07:17:25;25.70;49.50
1936;DHT22;969;49.892;10.896;2023-07-22T07:19:51;25.70;49.60
1936;DHT22;969;49.892;10.896;2023-07-22T07:22:17;25.70;49.60
1936;DHT22;969;49.892;10.896;2023-07-22T07:24:42;25.70;49.60
1936;DHT22;969;49.892;10.896;2023-07-22T07:27:08;25.70;49.50
1936;DHT22;969;49.892;10.896;2023-07-22T07:29:33;25.70;49.50
1936;DHT22;969;49.892;10.896;2023-07-22T07:31:59;25.70;49.50
1936;DHT22;969;49.892;10.896;2023-07-22T07:34:24;25.70;50.10
1936;DHT22;969;49.892;10.896;2023-07-22T07:36:50;25.70;49.50
1936;DHT22;969;49.892;10.896;2023-07-22T07:39:16;25.70;49.50
1936;DHT22;969;49.892;10.896;2023-07-22T07:41:41;25.70;49.50
1936;DHT22;969;49.892;10.896;2023-07-22T07:44:07;25.70;49.50
1936;DHT22;969;49.892;10.896;2023-07-22T07:46:32;25.70;49.50
1936;DHT22;969;49.892;10.896;2023-07-22T07:49:00;25.70;49.50
1936;DHT22;969;49.892;10.896;2023-07-22T07:51:30;25.70;49.50
1936;DHT22;969;49.892;10.896;2023-07-22T07:53:57;25.70;49.60
1936;DHT22;969;49.892;10.896;2023-07-22T07:56:23;25.70;49.50
1936;DHT22;969;49.892;10.896;2023-07-22T07:58:51;25.70;49.50
1936;DHT22;969;49.892;10.896;2023-07-22T08:01:17;25.70;49.50
1936;DHT22;969;49.892;10.896;2023-07-22T08:03:43;25.70;49.60
1936;DHT22;969;49.892;10.896;2023-07-22T08:06:10;25.70;49.60
1936;DHT22;969;49.892;10.896;2023-07-22T08:08:36;25.70;49.60
1936;DHT22;969;49.892;10.896;2023-07-22T08:13:33;25.70;49.60
1936;DHT22;969;49.892;10.896;2023-07-22T08:16:08;25.70;49.60
1936;DHT22;969;49.892;10.896;2023-07-22T08:18:35;25.70;49.60
1936;DHT22;969;49.892;10.896;2023-07-22T08:21:03;25.80;49.70
1936;DHT22;969;49.892;10.896;2023-07-22T08:23:29;25.70;49.50
1936;DHT22;969;49.892;10.896;2023-07-22T08:25:55;25.80;49.70
1936;DHT22;969;49.892;10.896;2023-07-22T08:28:20;25.70;49.60
1936;DHT22;969;49.892;10.896;2023-07-22T08:30:47;25.80;50.20
1936;DHT22;969;49.892;10.896;2023-07-22T08:33:14;25.80;49.60
1936;DHT22;969;49.892;10.896;2023-07-22T08:35:39;25.70;49.60
1936;DHT22;969;49.892;10.896;2023-07-22T08:38:06;25.70;49.50
1936;DHT22;969;49.892;10.896;2023-07-22T08:40:37;25.80;49.70
1936;DHT22;969;49.892;10.896;2023-07-22T08:43:06;25.70;49.50
1936;DHT22;969;49.892;10.896;2023-07-22T08:45:33;25.80;49.70
1936;DHT22;969;49.892;10.896;2023-07-22T08:48:03;25.70;49.60
1936;DHT22;969;49.892;10.896;2023-07-22T08:50:46;25.70;49.60
1936;DHT22;969;49.892;10.896;2023-07-22T08:53:14;25.70;49.60
1936;DHT22;969;49.892;10.896;2023-07-22T08:55:41;25.80;49.70
1936;DHT22;969;49.892;10.896;2023-07-22T08:58:08;25.80;49.70
1936;DHT22;969;49.892;10.896;2023-07-22T09:00:35;25.70;49.60
1936;DHT22;969;49.892;10.896;2023-07-22T09:03:01;25.70;49.60
1936;DHT22;969;49.892;10.896;2023-07-22T09:05:26;25.80;49.60
1936;DHT22;969;49.892;10.896;2023-07-22T09:07:53;25.80;49.60
1936;DHT22;969;49.892;10.896;2023-07-22T09:10:19;25.80;49.70
1936;DHT22;969;49.892;10.896;2023-07-22T09:12:46;25.80;49.60
1936;DHT22;969;49.892;10.896;2023-07-22T09:15:12;25.70;49.60
1936;DHT22;969;49.892;10.896;2023-07-22T09:17:39;25.80;49.70
1936;DHT22;969;49.892;10.896;2023-07-22T09:20:07;25.80;49.60
1936;DHT22;969;49.892;10.896;2023-07-22T09:22:33;25.80;49.60
1936;DHT22;969;49.892;10.896;2023-07-22T09:25:19;25.70;49.60
1936;DHT22;969;49.892;10.896;2023-07-22T09:27:49;25.80;49.60
1936;DHT22;969;49.892;10.896;2023-07-22T09:30:33;25.70;49.50
1936;DHT22;969;49.892;10.896;2023-07-22T09:33:01;25.70;49.50
1936;DHT22;969;49.892;10.896;2023-07-22T09:38:06;25.80;49.50
1936;DHT22;969;49.892;10.896;2023-07-22T09:40:31;25.80;49.60
1936;DHT22;969;49.892;10.896;2023-07-22T09:43:01;25.80;49.60
1936;DHT22;969;49.892;10.896;2023-07-22T09:45:30;25.80;49.50
1936;DHT22;969;49.892;10.896;2023-07-22T09:47:57;25.70;49.40
1936;DHT22;969;49.892;10.896;2023-07-22T09:50:27;25.80;49.50
1936;DHT22;969;49.892;10.896;2023-07-22T09:52:56;25.80;49.50
1936;DHT22;969;49.892;10.896;2023-07-22T09:55:25;25.80;49.40
1936;DHT22;969;49.892;10.896;2023-07-22T10:00:20;25.80;49.40
1936;DHT22;969;49.892;10.896;2023-07-22T10:02:48;25.80;49.40
1936;DHT22;969;49.892;10.896;2023-07-22T10:05:18;25.80;49.40
1936;DHT22;969;49.892;10.896;2023-07-22T10:07:55;25.80;49.40
1936;DHT22;969;49.892;10.896;2023-07-22T10:10:24;25.80;49.30
1936;DHT22;969;49.892;10.896;2023-07-22T10:12:51;25.80;49.20
1936;DHT22;969;49.892;10.896;2023-07-22T10:15:18;25.70;49.10
1936;DHT22;969;49.892;10.896;2023-07-22T10:17:45;25.80;49.10
1936;DHT22;969;49.892;10.896;2023-07-22T10:20:12;25.80;49.10
1936;DHT22;969;49.892;10.896;2023-07-22T10:22:45;25.80;49.00
1936;DHT22;969;49.892;10.896;2023-07-22T10:25:12;25.70;49.00
1936;DHT22;969;49.892;10.896;2023-07-22T10:27:39;25.80;49.00
1936;DHT22;969;49.892;10.896;2023-07-22T10:30:08;25.80;49.00
1936;DHT22;969;49.892;10.896;2023-07-22T10:32:38;25.70;49.00
1936;DHT22;969;49.892;10.896;2023-07-22T10:35:07;25.70;49.00
1936;DHT22;969;49.892;10.896;2023-07-22T10:37:35;25.80;49.00
1936;DHT22;969;49.892;10.896;2023-07-22T10:40:17;25.70;49.00
1936;DHT22;969;49.892;10.896;2023-07-22T10:43:12;25.70;48.90
1936;DHT22;969;49.892;10.896;2023-07-22T10:45:51;25.80;49.00
1936;DHT22;969;49.892;10.896;2023-07-22T10:48:17;25.80;49.00
1936;DHT22;969;49.892;10.896;2023-07-22T10:50:51;25.80;49.00
1936;DHT22;969;49.892;10.896;2023-07-22T10:53:20;25.80;49.60
1936;DHT22;969;49.892;10.896;2023-07-22T10:56:06;25.80;49.10
1936;DHT22;969;49.892;10.896;2023-07-22T11:01:36;25.80;49.10
1936;DHT22;969;49.892;10.896;2023-07-22T11:14:27;25.70;49.00
1936;DHT22;969;49.892;10.896;2023-07-22T11:16:54;25.80;49.00
1936;DHT22;969;49.892;10.896;2023-07-22T11:19:22;25.80;49.10
1936;DHT22;969;49.892;10.896;2023-07-22T11:21:49;25.80;49.70
1936;DHT22;969;49.892;10.896;2023-07-22T11:24:16;25.80;49.10
1936;DHT22;969;49.892;10.896;2023-07-22T11:26:42;25.80;49.10
1936;DHT22;969;49.892;10.896;2023-07-22T11:29:09;25.80;49.10
1936;DHT22;969;49.892;10.896;2023-07-22T11:31:37;25.80;49.10
1936;DHT22;969;49.892;10.896;2023-07-22T11:34:04;25.80;49.00
1936;DHT22;969;49.892;10.896;2023-07-22T11:36:30;25.80;49.00
1936;DHT22;969;49.892;10.896;2023-07-22T11:39:26;25.80;48.90
1936;DHT22;969;49.892;10.896;2023-07-22T11:41:52;25.80;48.80
1936;DHT22;969;49.892;10.896;2023-07-22T11:44:21;25.80;48.90
1936;DHT22;969;49.892;10.896;2023-07-22T11:46:54;25.80;48.80
1936;DHT22;969;49.892;10.896;2023-07-22T11:51:54;25.80;48.80
1936;DHT22;969;49.892;10.896;2023-07-22T11:54:21;25.80;48.70
1936;DHT22;969;49.892;10.896;2023-07-22T11:56:47;25.80;48.50
1936;DHT22;969;49.892;10.896;2023-07-22T11:59:12;25.80;48.40
1936;DHT22;969;49.892;10.896;2023-07-22T12:01:38;25.80;48.30
1936;DHT22;969;49.892;10.896;2023-07-22T12:04:13;25.80;48.30
1936;DHT22;969;49.892;10.896;2023-07-22T12:06:39;25.80;48.30
1936;DHT22;969;49.892;10.896;2023-07-22T12:09:07;25.80;48.40
1936;DHT22;969;49.892;10.896;2023-07-22T12:11:34;25.80;48.50
1936;DHT22;969;49.892;10.896;2023-07-22T12:14:17;25.80;48.30
1936;DHT22;969;49.892;10.896;2023-07-22T12:16:43;25.80;48.30
1936;DHT22;969;49.892;10.896;2023-07-22T12:19:09;25.80;48.20
1936;DHT22;969;49.892;10.896;2023-07-22T12:21:35;25.80;48.20
1936;DHT22;969;49.892;10.896;2023-07-22T12:24:01;25.80;48.20
1936;DHT22;969;49.892;10.896;2023-07-22T12:26:27;25.80;48.20
1936;DHT22;969;49.892;10.896;2023-07-22T12:28:53;25.80;48.10
1936;DHT22;969;49.892;10.896;2023-07-22T12:31:19;25.80;48.10
1936;DHT22;969;49.892;10.896;2023-07-22T12:33:44;25.80;48.00
1936;DHT22;969;49.892;10.896;2023-07-22T12:36:10;25.80;48.10
1936;DHT22;969;49.892;10.896;2023-07-22T12:38:36;25.80;48.10
1936;DHT22;969;49.892;10.896;2023-07-22T12:41:02;25.80;48.10
1936;DHT22;969;49.892;10.896;2023-07-22T12:43:28;25.80;48.20
1936;DHT22;969;49.892;10.896;2023-07-22T12:45:53;25.80;48.20
1936;DHT22;969;49.892;10.896;2023-07-22T12:48:19;25.80;48.20
1936;DHT22;969;49.892;10.896;2023-07-22T12:50:45;25.80;48.20
1936;DHT22;969;49.892;10.896;2023-07-22T12:53:10;25.80;48.30
1936;DHT22;969;49.892;10.896;2023-07-22T12:55:36;25.80;48.30
1936;DHT22;969;49.892;10.896;2023-07-22T12:58:02;25.80;48.30
1936;DHT22;969;49.892;10.896;2023-07-22T13:00:28;25.80;48.30
1936;DHT22;969;49.892;10.896;2023-07-22T13:02:53;25.80;48.30
1936;DHT22;969;49.892;10.896;2023-07-22T13:05:19;25.80;48.70
1936;DHT22;969;49.892;10.896;2023-07-22T13:07:45;25.80;48.00
1936;DHT22;969;49.892;10.896;2023-07-22T13:10:10;25.80;47.90
1936;DHT22;969;49.892;10.896;2023-07-22T13:12:38;25.80;47.90
1936;DHT22;969;49.892;10.896;2023-07-22T13:15:04;25.80;47.80
1936;DHT22;969;49.892;10.896;2023-07-22T13:17:31;25.80;47.70
1936;DHT22;969;49.892;10.896;2023-07-22T13:19:57;25.80;47.70
1936;DHT22;969;49.892;10.896;2023-07-22T13:22:22;25.80;47.60
1936;DHT22;969;49.892;10.896;2023-07-22T13:24:48;25.80;48.10
1936;DHT22;969;49.892;10.896;2023-07-22T13:27:13;25.80;47.50
1936;DHT22;969;49.892;10.896;2023-07-22T13:29:39;25.80;48.10
1936;DHT22;969;49.892;10.896;2023-07-22T13:32:05;25.80;47.50
1936;DHT22;969;49.892;10.896;2023-07-22T13:34:31;25.80;47.50
1936;DHT22;969;49.892;10.896;2023-07-22T13:36:57;25.80;47.50
1936;DHT22;969;49.892;10.896;2023-07-22T13:39:22;25.80;47.50
1936;DHT22;969;49.892;10.896;2023-07-22T13:41:48;25.80;47.50
1936;DHT22;969;49.892;10.896;2023-07-22T13:44:14;25.80;47.50
1936;DHT22;969;49.892;10.896;2023-07-22T13:46:40;25.80;47.50
1936;DHT22;969;49.892;10.896;2023-07-22T13:49:06;25.80;47.60
1936;DHT22;969;49.892;10.896;2023-07-22T13:51:31;25.80;47.60
1936;DHT22;969;49.892;10.896;2023-07-22T13:53:57;25.80;47.50
1936;DHT22;969;49.892;10.896;2023-07-22T13:56:24;25.80;47.40
1936;DHT22;969;49.892;10.896;2023-07-22T13:58:49;25.70;47.30
1936;DHT22;969;49.892;10.896;2023-07-22T14:01:15;25.70;47.40
1936;DHT22;969;49.892;10.896;2023-07-22T14:03:40;25.80;47.40
1936;DHT22;969;49.892;10.896;2023-07-22T14:06:06;25.80;47.50
1936;DHT22;969;49.892;10.896;2023-07-22T14:08:31;25.80;47.40
1936;DHT22;969;49.892;10.896;2023-07-22T14:10:59;25.70;47.40
1936;DHT22;969;49.892;10.896;2023-07-22T14:13:24;25.70;47.30
1936;DHT22;969;49.892;10.896;2023-07-22T14:15:50;25.70;47.30
1936;DHT22;969;49.892;10.896;2023-07-22T14:18:15;25.70;47.30
1936;DHT22;969;49.892;10.896;2023-07-22T14:20:43;25.70;47.30
1936;DHT22;969;49.892;10.896;2023-07-22T14:23:11;25.80;47.40
1936;DHT22;969;49.892;10.896;2023-07-22T14:25:36;25.80;47.40
1936;DHT22;969;49.892;10.896;2023-07-22T14:28:05;25.70;47.20
1936;DHT22;969;49.892;10.896;2023-07-22T14:30:31;25.70;47.30
1936;DHT22;969;49.892;10.896;2023-07-22T14:32:57;25.80;47.30
1936;DHT22;969;49.892;10.896;2023-07-22T14:35:22;25.80;47.30
1936;DHT22;969;49.892;10.896;2023-07-22T14:37:48;25.80;47.30
1936;DHT22;969;49.892;10.896;2023-07-22T14:40:14;25.70;47.30
1936;DHT22;969;49.892;10.896;2023-07-22T14:42:40;25.80;47.40
1936;DHT22;969;49.892;10.896;2023-07-22T14:45:06;25.80;47.40
1936;DHT22;969;49.892;10.896;2023-07-22T14:47:32;25.80;47.50
1936;DHT22;969;49.892;10.896;2023-07-22T14:49:58;25.80;47.50
1936;DHT22;969;49.892;10.896;2023-07-22T14:52:23;25.70;47.50
1936;DHT22;969;49.892;10.896;2023-07-22T14:54:49;25.70;47.50
1936;DHT22;969;49.892;10.896;2023-07-22T14:57:16;25.80;47.50
1936;DHT22;969;49.892;10.896;2023-07-22T14:59:41;25.70;47.50
1936;DHT22;969;49.892;10.896;2023-07-22T15:02:07;25.80;47.50
1936;DHT22;969;49.892;10.896;2023-07-22T15:04:33;25.70;47.50
1936;DHT22;969;49.892;10.896;2023-07-22T15:06:58;25.70;47.50
1936;DHT22;969;49.892;10.896;2023-07-22T15:09:24;25.80;47.60
1936;DHT22;969;49.892;10.896;2023-07-22T15:11:49;25.70;47.50
1936;DHT22;969;49.892;10.896;2023-07-22T15:14:15;25.70;47.60
1936;DHT22;969;49.892;10.896;2023-07-22T15:16:41;25.80;47.60
1936;DHT22;969;49.892;10.896;2023-07-22T15:19:07;25.80;47.80
1936;DHT22;969;49.892;10.896;2023-07-22T15:21:33;25.70;47.70
1936;DHT22;969;49.892;10.896;2023-07-22T15:23:59;25.70;47.70
1936;DHT22;969;49.892;10.896;2023-07-22T15:26:24;25.80;47.80
1936;DHT22;969;49.892;10.896;2023-07-22T15:28:51;25.70;47.70
1936;DHT22;969;49.892;10.896;2023-07-22T15:31:17;25.80;47.80
1936;DHT22;969;49.892;10.896;2023-07-22T15:33:43;25.70;47.70
1936;DHT22;969;49.892;10.896;2023-07-22T15:36:09;25.80;47.70
1936;DHT22;969;49.892;10.896;2023-07-22T15:38:34;25.70;47.60
1936;DHT22;969;49.892;10.896;2023-07-22T15:41:00;25.80;47.60
1936;DHT22;969;49.892;10.896;2023-07-22T15:43:27;25.80;47.60
1936;DHT22;969;49.892;10.896;2023-07-22T15:45:53;25.80;47.60
1936;DHT22;969;49.892;10.896;2023-07-22T15:48:19;25.80;47.60
1936;DHT22;969;49.892;10.896;2023-07-22T15:50:44;25.80;47.70
1936;DHT22;969;49.892;10.896;2023-07-22T15:53:10;25.80;47.80
1936;DHT22;969;49.892;10.896;2023-07-22T15:55:36;25.80;47.70
1936;DHT22;969;49.892;10.896;2023-07-22T15:58:02;25.80;47.80
1936;DHT22;969;49.892;10.896;2023-07-22T16:00:28;25.80;47.80
1936;DHT22;969;49.892;10.896;2023-07-22T16:02:53;25.80;47.80
1936;DHT22;969;49.892;10.896;2023-07-22T16:05:19;25.80;47.80
1936;DHT22;969;49.892;10.896;2023-07-22T16:07:46;25.80;47.80
1936;DHT22;969;49.892;10.896;2023-07-22T16:10:11;25.80;47.70
1936;DHT22;969;49.892;10.896;2023-07-22T16:12:37;25.80;47.60
1936;DHT22;969;49.892;10.896;2023-07-22T16:15:03;25.80;47.50
1936;DHT22;969;49.892;10.896;2023-07-22T16:17:31;25.80;47.30
1936;DHT22;969;49.892;10.896;2023-07-22T16:19:57;25.80;47.30
1936;DHT22;969;49.892;10.896;2023-07-22T16:22:22;25.80;47.30